createdAt,value
2023-03-03T00:00:53.021Z,100599.46
2023-03-03T00:03:27.526Z,100593.20
2023-03-03T00:06:00.393Z,100588.17
2023-03-03T00:08:32.981Z,100586.23
2023-03-03T00:11:06.751Z,100583.08
2023-03-03T00:13:46.102Z,100579.70
2023-03-03T00:16:27.295Z,100581.64
2023-03-03T00:19:01.472Z,100581.55
2023-03-03T00:21:35.549Z,100582.13
2023-03-03T00:24:20.347Z,100576.11
2023-03-03T00:26:55.936Z,100572.09
2023-03-03T00:29:39.574Z,100575.60
2023-03-03T00:32:29.352Z,100568.64
2023-03-03T00:35:25.262Z,100563.58
2023-03-03T00:38:00.230Z,100565.49
2023-03-03T00:40:38.047Z,100571.79
2023-03-03T00:43:20.036Z,100568.38
2023-03-03T00:45:54.407Z,100568.78
2023-03-03T00:48:29.345Z,100571.91
2023-03-03T00:51:02.678Z,100571.39
2023-03-03T00:53:34.516Z,100568.05
2023-03-03T00:56:06.353Z,100570.69
2023-03-03T00:58:37.980Z,100574.46
2023-03-03T01:01:09.772Z,100573.35
2023-03-03T01:03:41.506Z,100570.15
2023-03-03T01:06:14.981Z,100566.42
2023-03-03T01:08:46.551Z,100563.02
2023-03-03T01:11:23.036Z,100564.30
2023-03-03T01:13:56.473Z,100562.82
2023-03-03T01:16:28.295Z,100548.74
2023-03-03T01:18:59.924Z,100542.75
2023-03-03T01:21:32.877Z,100543.77
2023-03-03T01:24:04.449Z,100536.45
2023-03-03T01:26:36.435Z,100528.42
2023-03-03T01:29:08.589Z,100521.54
2023-03-03T01:31:40.803Z,100521.63
2023-03-03T01:34:13.152Z,100518.55
2023-03-03T01:36:45.734Z,100515.95
2023-03-03T01:39:18.015Z,100516.28
2023-03-03T01:41:49.557Z,100513.66
2023-03-03T01:44:21.332Z,100516.64
2023-03-03T01:47:00.037Z,100523.44
2023-03-03T01:49:35.953Z,100521.55
2023-03-03T01:52:13.309Z,100515.93
2023-03-03T01:54:50.047Z,100519.11
2023-03-03T01:57:28.428Z,100517.92
2023-03-03T02:00:02.312Z,100509.46
2023-03-03T02:02:36.479Z,100501.81
2023-03-03T02:05:11.165Z,100506.83
2023-03-03T02:07:41.249Z,100509.55
2023-03-03T02:10:17.751Z,100510.55
2023-03-03T02:12:53.886Z,100508.92
2023-03-03T02:15:28.083Z,100503.63
2023-03-03T02:18:02.234Z,100501.19
2023-03-03T02:20:45.156Z,100499.29
2023-03-03T02:23:24.566Z,100489.30
2023-03-03T02:26:08.863Z,100486.41
2023-03-03T02:28:42.103Z,100490.65
2023-03-03T02:31:16.851Z,100495.52
2023-03-03T02:33:47.819Z,100499.80
2023-03-03T02:36:22.200Z,100491.29
2023-03-03T02:39:01.557Z,100488.86
2023-03-03T02:41:38.147Z,100491.09
2023-03-03T02:44:12.171Z,100493.27
2023-03-03T02:46:46.343Z,100492.77
2023-03-03T02:49:20.984Z,100495.61
2023-03-03T02:51:53.365Z,100490.80
2023-03-03T02:54:26.483Z,100488.05
2023-03-03T02:56:58.574Z,100490.86
2023-03-03T02:59:30.219Z,100484.33
2023-03-03T03:02:01.913Z,100492.63
2023-03-03T03:04:33.463Z,100494.84
2023-03-03T03:07:05.104Z,100495.08
2023-03-03T03:09:36.717Z,100492.42
2023-03-03T03:12:08.959Z,100493.73
2023-03-03T03:14:40.594Z,100505.23
2023-03-03T03:17:13.026Z,100502.75
2023-03-03T03:19:44.974Z,100499.05
2023-03-03T03:22:16.832Z,100500.73
2023-03-03T03:24:48.561Z,100495.44
2023-03-03T03:27:20.906Z,100497.86
2023-03-03T03:29:52.603Z,100499.08
2023-03-03T03:32:24.837Z,100503.45
2023-03-03T03:34:56.784Z,100501.55
2023-03-03T03:37:28.484Z,100505.21
2023-03-03T03:40:00.171Z,100505.49
2023-03-03T03:42:31.675Z,100506.19
2023-03-03T03:45:03.300Z,100505.27
2023-03-03T03:47:34.791Z,100507.06
2023-03-03T03:50:06.741Z,100501.76
2023-03-03T03:52:38.314Z,100503.77
2023-03-03T03:55:11.882Z,100496.54
2023-03-03T03:57:43.522Z,100492.96
2023-03-03T04:00:16.812Z,100486.25
2023-03-03T04:02:50.154Z,100492.89
2023-03-03T04:05:22.274Z,100495.52
2023-03-03T04:07:54.066Z,100491.40
2023-03-03T04:10:25.602Z,100484.99
2023-03-03T04:12:57.408Z,100481.70
2023-03-03T04:15:29.040Z,100475.26
2023-03-03T04:18:00.807Z,100467.52
2023-03-03T04:20:32.547Z,100466.95
2023-03-03T04:23:04.023Z,100466.31
2023-03-03T04:25:35.680Z,100463.98
2023-03-03T04:28:08.891Z,100476.58
2023-03-03T04:30:40.435Z,100475.91
2023-03-03T04:33:12.245Z,100473.19
2023-03-03T04:35:43.908Z,100471.98
2023-03-03T04:38:15.572Z,100466.77
2023-03-03T04:40:47.295Z,100461.08
2023-03-03T04:43:19.396Z,100466.77
2023-03-03T04:45:50.901Z,100462.45
2023-03-03T04:48:22.529Z,100457.21
2023-03-03T04:50:54.510Z,100447.54
2023-03-03T04:53:26.224Z,100447.64
2023-03-03T04:55:57.894Z,100449.49
2023-03-03T04:58:30.237Z,100450.65
2023-03-03T05:01:02.134Z,100456.60
2023-03-03T05:03:34.577Z,100455.78
2023-03-03T05:06:06.708Z,100461.38
2023-03-03T05:08:38.736Z,100457.58
2023-03-03T05:11:11.586Z,100454.77
2023-03-03T05:13:44.738Z,100448.82
2023-03-03T05:16:25.797Z,100442.85
2023-03-03T05:19:06.075Z,100449.46
2023-03-03T05:22:08.829Z,100442.36
2023-03-03T05:24:43.209Z,100444.92
2023-03-03T05:27:14.993Z,100447.17
2023-03-03T05:29:47.250Z,100452.64
2023-03-03T05:32:19.873Z,100458.27
2023-03-03T05:34:52.801Z,100462.91
2023-03-03T05:37:25.083Z,100464.45
2023-03-03T05:39:56.683Z,100456.80
2023-03-03T05:42:28.397Z,100457.91
2023-03-03T05:44:59.984Z,100457.46
2023-03-03T05:47:31.689Z,100455.91
2023-03-03T05:50:03.293Z,100447.88
2023-03-03T05:52:34.991Z,100454.27
2023-03-03T05:55:07.071Z,100453.70
2023-03-03T05:57:38.743Z,100450.83
2023-03-03T06:00:12.754Z,100453.42
2023-03-03T06:02:45.163Z,100455.93
2023-03-03T06:05:16.873Z,100456.35
2023-03-03T06:07:49.006Z,100456.74
2023-03-03T06:10:20.817Z,100454.10
2023-03-03T06:12:52.674Z,100456.13
2023-03-03T06:15:24.622Z,100452.65
2023-03-03T06:17:56.389Z,100449.63
2023-03-03T06:20:28.241Z,100452.96
2023-03-03T06:23:00.186Z,100456.80
2023-03-03T06:25:32.136Z,100456.39
2023-03-03T06:28:04.073Z,100453.42
2023-03-03T06:30:38.420Z,100457.61
2023-03-03T06:33:10.175Z,100451.05
2023-03-03T06:35:41.886Z,100447.21
2023-03-03T06:38:14.384Z,100448.00
2023-03-03T06:40:46.336Z,100449.84
2023-03-03T06:43:18.435Z,100452.36
2023-03-03T06:45:50.371Z,100444.98
2023-03-03T06:48:22.184Z,100445.07
2023-03-03T06:50:55.340Z,100452.33
2023-03-03T06:53:27.889Z,100453.83
2023-03-03T06:56:02.415Z,100449.96
2023-03-03T06:58:36.489Z,100456.98
2023-03-03T07:01:19.940Z,100459.52
2023-03-03T07:03:51.739Z,100462.51
2023-03-03T07:06:28.813Z,100458.36
2023-03-03T07:09:00.829Z,100456.90
2023-03-03T07:11:37.512Z,100456.94
2023-03-03T07:14:18.149Z,100458.39
2023-03-03T07:16:55.452Z,100453.28
2023-03-03T07:19:33.544Z,100450.42
2023-03-03T07:22:16.928Z,100440.39
2023-03-03T07:24:52.823Z,100426.29
2023-03-03T07:27:28.601Z,100429.09
2023-03-03T07:30:21.539Z,100439.91
2023-03-03T07:32:59.220Z,100435.45
2023-03-03T07:35:44.568Z,100425.95
2023-03-03T07:38:26.437Z,100432.79
2023-03-03T07:41:01.574Z,100438.83
2023-03-03T07:43:42.210Z,100432.89
2023-03-03T07:46:33.339Z,100445.38
2023-03-03T07:49:23.973Z,100441.89
2023-03-03T07:51:59.391Z,100439.67
2023-03-03T07:54:40.893Z,100440.30
2023-03-03T07:57:26.912Z,100436.55
2023-03-03T08:00:24.939Z,100444.98
2023-03-03T08:03:00.367Z,100444.65
2023-03-03T08:05:39.055Z,100449.02
2023-03-03T08:08:32.023Z,100454.52
2023-03-03T08:11:10.146Z,100452.27
2023-03-03T08:13:44.373Z,100446.27
2023-03-03T08:16:39.203Z,100445.25
2023-03-03T08:19:13.738Z,100444.20
2023-03-03T08:21:46.522Z,100447.31
2023-03-03T08:24:19.189Z,100451.48
2023-03-03T08:26:51.979Z,100451.21
2023-03-03T08:29:25.020Z,100447.35
2023-03-03T08:31:58.274Z,100456.46
2023-03-03T08:34:31.491Z,100462.29
2023-03-03T08:37:04.049Z,100464.50
2023-03-03T08:39:36.693Z,100465.66
2023-03-03T08:42:09.254Z,100471.14
2023-03-03T08:44:42.372Z,100483.76
2023-03-03T08:47:14.722Z,100473.05
2023-03-03T08:49:47.501Z,100473.92
2023-03-03T08:52:19.969Z,100465.71
2023-03-03T08:54:53.666Z,100460.45
2023-03-03T08:57:27.329Z,100464.86
2023-03-03T08:59:59.973Z,100464.58
2023-03-03T09:02:33.072Z,100465.78
2023-03-03T09:05:07.909Z,100468.29
2023-03-03T09:07:38.376Z,100469.17
2023-03-03T09:10:13.895Z,100462.70
2023-03-03T09:12:48.789Z,100460.22
2023-03-03T09:15:25.657Z,100462.63
2023-03-03T09:17:59.813Z,100462.56
2023-03-03T09:20:40.465Z,100459.90
2023-03-03T09:23:36.953Z,100468.25
2023-03-03T09:26:30.214Z,100468.02
2023-03-03T09:29:20.645Z,100471.91
2023-03-03T09:31:55.759Z,100479.63
2023-03-03T09:34:40.054Z,100479.48
2023-03-03T09:37:25.099Z,100478.19
2023-03-03T09:39:59.100Z,100472.79
2023-03-03T09:43:01.063Z,100469.96
2023-03-03T09:46:00.538Z,100469.83
2023-03-03T09:48:51.753Z,100469.88
2023-03-03T09:51:53.890Z,100474.01
2023-03-03T09:55:03.171Z,100479.58
2023-03-03T09:58:08.253Z,100471.07
2023-03-03T10:00:52.212Z,100463.52
2023-03-03T10:03:56.031Z,100469.16
2023-03-03T10:06:35.258Z,100471.08
2023-03-03T10:09:37.101Z,100465.33
2023-03-03T10:12:18.938Z,100463.39
2023-03-03T10:15:14.769Z,100463.02
2023-03-03T10:17:54.061Z,100454.73
2023-03-03T10:20:49.455Z,100450.11
2023-03-03T10:23:33.739Z,100449.40
2023-03-03T10:26:18.617Z,100445.83
2023-03-03T10:29:22.164Z,100447.69
2023-03-03T10:32:06.709Z,100449.90
2023-03-03T10:35:02.857Z,100450.02
2023-03-03T10:37:46.478Z,100443.40
2023-03-03T10:40:30.523Z,100449.91
2023-03-03T10:43:31.228Z,100442.65
2023-03-03T10:46:32.673Z,100440.54
2023-03-03T10:49:19.861Z,100444.84
2023-03-03T10:52:08.051Z,100444.38
2023-03-03T10:54:54.552Z,100448.35
2023-03-03T10:57:35.157Z,100449.23
2023-03-03T11:00:21.745Z,100456.56
2023-03-03T11:03:17.579Z,100461.48
2023-03-03T11:05:53.898Z,100454.56
2023-03-03T11:08:32.057Z,100447.20
2023-03-03T11:11:16.854Z,100448.13
2023-03-03T11:13:55.594Z,100445.57
2023-03-03T11:16:45.424Z,100444.95
2023-03-03T11:19:38.774Z,100440.67
2023-03-03T11:22:26.608Z,100446.91
2023-03-03T11:25:10.691Z,100448.88
2023-03-03T11:28:14.381Z,100448.21
2023-03-03T11:31:00.883Z,100447.19
2023-03-03T11:33:42.133Z,100446.48
2023-03-03T11:36:24.227Z,100449.52
2023-03-03T11:39:06.382Z,100457.65
2023-03-03T11:41:44.141Z,100457.48
2023-03-03T11:44:24.844Z,100452.59
2023-03-03T11:47:02.386Z,100453.77
2023-03-03T11:49:42.367Z,100451.80
2023-03-03T11:52:27.899Z,100452.70
2023-03-03T11:55:08.212Z,100440.71
2023-03-03T11:57:45.342Z,100437.20
2023-03-03T12:00:29.291Z,100435.52
2023-03-03T12:03:13.413Z,100432.14
2023-03-03T12:05:58.322Z,100432.90
2023-03-03T12:09:01.677Z,100430.18
2023-03-03T12:11:44.560Z,100428.31
2023-03-03T12:14:29.095Z,100430.81
2023-03-03T12:17:06.381Z,100429.45
2023-03-03T12:19:52.039Z,100424.52
2023-03-03T12:22:35.421Z,100425.22
2023-03-03T12:25:31.182Z,100422.23
2023-03-03T12:28:11.184Z,100421.06
2023-03-03T12:31:03.225Z,100420.20
2023-03-03T12:33:52.469Z,100419.66
2023-03-03T12:36:49.250Z,100422.84
2023-03-03T12:39:36.474Z,100431.23
2023-03-03T12:42:16.782Z,100428.09
2023-03-03T12:45:00.553Z,100425.75
2023-03-03T12:47:40.133Z,100429.13
2023-03-03T12:50:34.299Z,100435.19
2023-03-03T12:53:23.908Z,100437.20
2023-03-03T12:56:03.343Z,100433.27
2023-03-03T12:58:45.749Z,100434.50
2023-03-03T13:01:32.401Z,100435.70
2023-03-03T13:04:13.725Z,100438.20
2023-03-03T13:06:54.290Z,100436.27
2023-03-03T13:09:40.952Z,100432.64
2023-03-03T13:12:30.548Z,100435.02
2023-03-03T13:15:15.968Z,100437.98
2023-03-03T13:17:59.032Z,100439.42
2023-03-03T13:20:43.996Z,100435.27
2023-03-03T13:23:28.938Z,100435.11
2023-03-03T13:26:09.903Z,100429.14
2023-03-03T13:28:47.740Z,100417.84
2023-03-03T13:31:23.406Z,100417.59
2023-03-03T13:33:57.671Z,100414.24
2023-03-03T13:36:37.106Z,100413.38
2023-03-03T13:39:21.503Z,100416.09
2023-03-03T13:41:59.267Z,100419.89
2023-03-03T13:44:37.952Z,100419.02
2023-03-03T13:47:21.058Z,100417.09
2023-03-03T13:50:03.193Z,100411.99
2023-03-03T13:52:40.308Z,100404.61
2023-03-03T13:55:29.260Z,100405.23
2023-03-03T13:58:09.496Z,100408.70
2023-03-03T14:00:53.107Z,100412.30
2023-03-03T14:03:50.139Z,100408.85
2023-03-03T14:06:25.262Z,100409.52
2023-03-03T14:09:23.032Z,100409.02
2023-03-03T14:12:04.562Z,100406.24
2023-03-03T14:14:49.900Z,100408.84
2023-03-03T14:17:32.283Z,100404.06
2023-03-03T14:20:16.194Z,100405.49
2023-03-03T14:22:55.168Z,100403.47
2023-03-03T14:25:28.690Z,100398.73
2023-03-03T14:28:14.611Z,100401.41
2023-03-03T14:30:46.751Z,100399.63
2023-03-03T14:33:31.214Z,100397.06
2023-03-03T14:36:16.501Z,100394.02
2023-03-03T14:38:52.356Z,100393.11
2023-03-03T14:41:38.403Z,100392.86
2023-03-03T14:44:31.678Z,100392.99
2023-03-03T14:47:24.381Z,100395.13
2023-03-03T14:50:00.595Z,100393.35
2023-03-03T14:52:36.264Z,100391.98
2023-03-03T14:55:35.855Z,100391.35
2023-03-03T14:58:25.792Z,100391.05
2023-03-03T15:01:16.055Z,100393.27
2023-03-03T15:04:00.332Z,100382.98
2023-03-03T15:06:35.720Z,100387.78
2023-03-03T15:09:30.121Z,100380.17
2023-03-03T15:12:03.803Z,100382.91
2023-03-03T15:14:46.243Z,100383.10
2023-03-03T15:17:37.781Z,100384.97
2023-03-03T15:20:33.475Z,100380.54
2023-03-03T15:23:20.077Z,100374.04
2023-03-03T15:26:00.166Z,100372.68
2023-03-03T15:28:41.904Z,100369.36
2023-03-03T15:31:31.585Z,100362.72
2023-03-03T15:34:21.209Z,100364.46
2023-03-03T15:36:59.820Z,100366.94
2023-03-03T15:39:43.816Z,100369.11
2023-03-03T15:42:26.642Z,100372.45
2023-03-03T15:45:06.034Z,100374.91
2023-03-03T15:48:04.360Z,100371.59
2023-03-03T15:50:52.457Z,100376.39
2023-03-03T15:53:54.625Z,100381.45
2023-03-03T15:56:36.311Z,100377.55
2023-03-03T15:59:45.343Z,100382.04
2023-03-03T16:02:22.074Z,100381.00
2023-03-03T16:05:02.191Z,100382.92
2023-03-03T16:07:54.465Z,100381.88
2023-03-03T16:10:31.218Z,100378.70
2023-03-03T16:13:16.869Z,100381.23
2023-03-03T16:15:59.072Z,100380.14
2023-03-03T16:18:42.580Z,100382.91
2023-03-03T16:21:26.274Z,100387.88
2023-03-03T16:24:03.106Z,100381.67
2023-03-03T16:26:47.767Z,100377.41
2023-03-03T16:29:48.017Z,100373.94
2023-03-03T16:32:30.263Z,100381.17
2023-03-03T16:35:19.112Z,100378.98
2023-03-03T16:37:59.916Z,100379.70
2023-03-03T16:40:35.271Z,100383.77
2023-03-03T16:43:20.815Z,100386.14
2023-03-03T16:45:59.248Z,100382.15
2023-03-03T16:48:48.546Z,100379.83
2023-03-03T16:51:41.312Z,100372.45
2023-03-03T16:54:21.235Z,100371.95
2023-03-03T16:57:07.041Z,100379.34
2023-03-03T16:59:53.317Z,100377.77
2023-03-03T17:02:42.804Z,100365.02
2023-03-03T17:05:30.329Z,100364.22
2023-03-03T17:08:22.321Z,100368.13
2023-03-03T17:11:03.842Z,100370.73
2023-03-03T17:14:09.410Z,100375.96
2023-03-03T17:16:53.259Z,100372.81
2023-03-03T17:19:41.284Z,100376.22
2023-03-03T17:22:22.001Z,100382.44
2023-03-03T17:25:12.663Z,100382.62
2023-03-03T17:28:01.297Z,100375.34
2023-03-03T17:30:43.899Z,100381.73
2023-03-03T17:33:52.226Z,100376.86
2023-03-03T17:36:36.334Z,100377.52
2023-03-03T17:39:21.831Z,100375.90
2023-03-03T17:42:01.331Z,100368.37
2023-03-03T17:44:43.477Z,100375.05
2023-03-03T17:47:25.499Z,100385.11
2023-03-03T17:50:12.572Z,100380.52
2023-03-03T17:53:16.308Z,100381.67
2023-03-03T17:56:07.532Z,100386.98
2023-03-03T17:59:15.583Z,100382.20
2023-03-03T18:02:09.886Z,100376.79
2023-03-03T18:04:58.522Z,100371.30
2023-03-03T18:07:48.661Z,100367.01
2023-03-03T18:10:55.379Z,100368.20
2023-03-03T18:13:59.176Z,100370.16
2023-03-03T18:16:53.399Z,100365.13
2023-03-03T18:19:47.033Z,100363.02
2023-03-03T18:22:29.072Z,100360.95
2023-03-03T18:25:13.934Z,100354.19
2023-03-03T18:27:48.593Z,100352.36
2023-03-03T18:30:33.826Z,100347.56
2023-03-03T18:33:10.827Z,100341.59
2023-03-03T18:35:45.582Z,100339.20
2023-03-03T18:38:38.601Z,100336.32
2023-03-03T18:41:15.342Z,100337.15
2023-03-03T18:44:01.054Z,100334.55
2023-03-03T18:47:01.188Z,100333.67
2023-03-03T18:49:58.399Z,100325.19
2023-03-03T18:52:38.032Z,100321.14
2023-03-03T18:55:29.680Z,100325.26
2023-03-03T18:58:35.118Z,100325.51
2023-03-03T19:01:39.961Z,100321.65
2023-03-03T19:04:30.118Z,100321.14
2023-03-03T19:07:27.549Z,100314.69
2023-03-03T19:10:04.497Z,100311.79
2023-03-03T19:12:55.386Z,100309.55
2023-03-03T19:15:58.309Z,100301.86
2023-03-03T19:18:39.140Z,100313.80
2023-03-03T19:21:28.491Z,100317.61
2023-03-03T19:24:04.384Z,100315.93
2023-03-03T19:27:16.840Z,100316.39
2023-03-03T19:30:26.056Z,100312.73
2023-03-03T19:33:19.664Z,100312.67
2023-03-03T19:36:14.028Z,100314.65
2023-03-03T19:39:00.721Z,100317.83
2023-03-03T19:41:49.327Z,100312.92
2023-03-03T19:44:40.939Z,100306.45
2023-03-03T19:47:26.741Z,100297.36
2023-03-03T19:50:13.799Z,100280.46
2023-03-03T19:52:54.866Z,100277.39
2023-03-03T19:55:46.280Z,100270.86
2023-03-03T19:58:37.713Z,100257.83
2023-03-03T20:01:26.626Z,100256.58
2023-03-03T20:05:06.330Z,100253.01
2023-03-03T20:07:53.086Z,100254.43
2023-03-03T20:10:48.018Z,100253.35
2023-03-03T20:13:53.680Z,100251.81
2023-03-03T20:16:42.401Z,100253.39
2023-03-03T20:19:28.705Z,100250.16
2023-03-03T20:22:13.041Z,100242.60
2023-03-03T20:25:20.141Z,100240.63
2023-03-03T20:28:20.583Z,100237.60
2023-03-03T20:31:06.523Z,100237.91
2023-03-03T20:33:54.753Z,100232.69
2023-03-03T20:36:41.141Z,100230.04
2023-03-03T20:39:22.015Z,100224.86
2023-03-03T20:42:06.965Z,100218.95
2023-03-03T20:44:48.370Z,100213.80
2023-03-03T20:47:31.968Z,100208.95
2023-03-03T20:50:23.534Z,100215.64
2023-03-03T20:53:10.254Z,100205.80
2023-03-03T20:55:55.043Z,100205.67
2023-03-03T20:58:36.923Z,100201.36
2023-03-03T21:01:16.700Z,100199.95
2023-03-03T21:03:52.249Z,100198.08
2023-03-03T21:06:40.713Z,100201.36
2023-03-03T21:09:28.775Z,100194.50
2023-03-03T21:12:05.243Z,100195.58
2023-03-03T21:14:40.439Z,100195.35
2023-03-03T21:17:33.559Z,100188.85
2023-03-03T21:20:25.394Z,100187.14
2023-03-03T21:23:13.016Z,100182.77
2023-03-03T21:25:49.794Z,100173.17
2023-03-03T21:28:26.270Z,100173.78
2023-03-03T21:31:14.451Z,100171.13
2023-03-03T21:33:53.416Z,100171.77
2023-03-03T21:36:45.864Z,100165.54
2023-03-03T21:39:34.064Z,100159.17
2023-03-03T21:42:10.287Z,100151.27
2023-03-03T21:44:47.525Z,100145.98
2023-03-03T21:47:21.656Z,100142.98
2023-03-03T21:49:55.741Z,100143.52
2023-03-03T21:52:27.637Z,100138.95
2023-03-03T21:55:00.713Z,100143.49
2023-03-03T21:57:32.577Z,100144.88
2023-03-03T22:00:06.328Z,100142.04
2023-03-03T22:02:38.312Z,100134.41
2023-03-03T22:05:12.130Z,100136.00
2023-03-03T22:07:43.837Z,100137.52
2023-03-03T22:10:17.038Z,100135.34
2023-03-03T22:12:50.442Z,100131.99
2023-03-03T22:15:23.256Z,100133.70
2023-03-03T22:17:54.971Z,100127.23
2023-03-03T22:20:26.538Z,100123.61
2023-03-03T22:22:58.583Z,100123.39
2023-03-03T22:25:30.905Z,100125.80
2023-03-03T22:28:02.887Z,100122.88
2023-03-03T22:30:34.978Z,100121.14
2023-03-03T22:33:07.040Z,100116.35
2023-03-03T22:35:38.651Z,100110.38
2023-03-03T22:38:11.390Z,100110.70
2023-03-03T22:40:43.850Z,100103.98
2023-03-03T22:43:16.356Z,100106.02
2023-03-03T22:45:49.190Z,100107.08
2023-03-03T22:48:21.389Z,100100.30
2023-03-03T22:50:53.773Z,100088.93
2023-03-03T22:53:26.288Z,100088.41
2023-03-03T22:55:58.853Z,100090.90
2023-03-03T22:58:31.097Z,100089.39
2023-03-03T23:01:03.187Z,100082.83
2023-03-03T23:03:35.003Z,100080.06
2023-03-03T23:06:07.227Z,100075.79
2023-03-03T23:08:39.940Z,100068.64
2023-03-03T23:11:12.284Z,100059.91
2023-03-03T23:13:43.815Z,100056.13
2023-03-03T23:16:15.533Z,100051.74
2023-03-03T23:18:47.131Z,100045.44
2023-03-03T23:21:19.968Z,100038.53
2023-03-03T23:23:52.266Z,100038.70
2023-03-03T23:26:23.809Z,100041.88
2023-03-03T23:28:55.339Z,100030.10
2023-03-03T23:31:27.566Z,100034.11
2023-03-03T23:33:59.112Z,100030.49
2023-03-03T23:36:30.775Z,100025.36
2023-03-03T23:39:02.543Z,100021.13
2023-03-03T23:41:35.063Z,100015.69
2023-03-03T23:44:06.930Z,100013.88
2023-03-03T23:46:40.355Z,100010.08
2023-03-03T23:49:12.476Z,100011.04
2023-03-03T23:51:45.111Z,100013.17
2023-03-03T23:54:17.296Z,100008.42
2023-03-03T23:56:49.672Z,100006.02
2023-03-03T23:59:21.496Z,99994.52
